createdAt,value
2023-03-07T00:01:11.158Z,-1.06
2023-03-07T00:03:43.401Z,-1.06
2023-03-07T00:06:14.220Z,-1.06
2023-03-07T00:08:41.279Z,-1.06
2023-03-07T00:11:10.487Z,-1.07
2023-03-07T00:13:39.668Z,-1.08
2023-03-07T00:16:09.195Z,-1.09
2023-03-07T00:18:37.763Z,-1.08
2023-03-07T00:21:10.331Z,-1.07
2023-03-07T00:23:39.425Z,-1.08
2023-03-07T00:26:19.682Z,-1.08
2023-03-07T00:28:49.717Z,-1.10
2023-03-07T00:31:38.272Z,-1.10
2023-03-07T00:34:08.680Z,-1.08
2023-03-07T00:36:39.314Z,-1.06
2023-03-07T00:39:26.840Z,-1.06
2023-03-07T00:42:07.923Z,-1.06
2023-03-07T00:44:35.562Z,-1.07
2023-03-07T00:47:03.384Z,-1.08
2023-03-07T00:49:31.621Z,-1.11
2023-03-07T00:51:59.393Z,-1.13
2023-03-07T00:54:27.775Z,-1.16
2023-03-07T00:56:55.835Z,-1.18
2023-03-07T00:59:23.094Z,-1.19
2023-03-07T01:02:01.923Z,-1.23
2023-03-07T01:04:29.385Z,-1.22
2023-03-07T01:06:56.727Z,-1.22
2023-03-07T01:09:24.907Z,-1.23
2023-03-07T01:11:53.442Z,-1.25
2023-03-07T01:14:20.635Z,-1.27
2023-03-07T01:16:48.137Z,-1.29
2023-03-07T01:19:15.757Z,-1.31
2023-03-07T01:21:44.641Z,-1.33
2023-03-07T01:24:16.042Z,-1.38
2023-03-07T01:26:46.682Z,-1.46
2023-03-07T01:29:14.606Z,-1.51
2023-03-07T01:31:42.623Z,-1.57
2023-03-07T01:34:10.025Z,-1.63
2023-03-07T01:36:41.109Z,-1.68
2023-03-07T01:39:10.709Z,-1.73
2023-03-07T01:41:42.136Z,-1.80
2023-03-07T01:44:21.101Z,-1.84
2023-03-07T01:46:52.907Z,-1.92
2023-03-07T01:49:33.934Z,-1.98
2023-03-07T01:52:16.218Z,-2.03
2023-03-07T01:54:53.225Z,-2.09
2023-03-07T01:57:24.813Z,-2.13
2023-03-07T01:59:59.040Z,-2.17
2023-03-07T02:02:27.729Z,-2.20
2023-03-07T02:05:01.475Z,-2.24
2023-03-07T02:07:34.925Z,-2.30
2023-03-07T02:10:03.342Z,-2.35
2023-03-07T02:12:33.985Z,-2.39
2023-03-07T02:15:01.733Z,-2.43
2023-03-07T02:17:32.848Z,-2.48
2023-03-07T02:20:11.984Z,-2.50
2023-03-07T02:22:43.326Z,-2.54
2023-03-07T02:25:19.212Z,-2.56
2023-03-07T02:27:51.600Z,-2.59
2023-03-07T02:30:19.326Z,-2.61
2023-03-07T02:32:49.561Z,-2.63
2023-03-07T02:35:21.219Z,-2.65
2023-03-07T02:37:53.781Z,-2.66
2023-03-07T02:40:25.024Z,-2.69
2023-03-07T02:43:13.256Z,-2.72
2023-03-07T02:45:44.649Z,-2.75
2023-03-07T02:48:12.293Z,-2.80
2023-03-07T02:50:41.893Z,-2.84
2023-03-07T02:53:09.664Z,-2.89
2023-03-07T02:55:37.686Z,-2.91
2023-03-07T02:58:05.181Z,-2.93
2023-03-07T03:00:32.740Z,-2.94
2023-03-07T03:03:00.202Z,-2.95
2023-03-07T03:05:30.452Z,-2.98
2023-03-07T03:07:57.932Z,-2.98
2023-03-07T03:10:44.094Z,-2.98
2023-03-07T03:13:21.720Z,-3.00
2023-03-07T03:15:49.805Z,-3.02
2023-03-07T03:18:19.978Z,-3.08
2023-03-07T03:21:12.601Z,-3.08
2023-03-07T03:23:41.105Z,-3.05
2023-03-07T03:26:11.890Z,-3.06
2023-03-07T03:28:40.421Z,-3.09
2023-03-07T03:31:10.487Z,-3.10
2023-03-07T03:33:40.041Z,-3.10
2023-03-07T03:36:12.553Z,-3.09
2023-03-07T03:38:40.498Z,-3.07
2023-03-07T03:41:13.077Z,-3.07
2023-03-07T03:43:41.137Z,-3.07
2023-03-07T03:46:08.412Z,-3.10
2023-03-07T03:48:36.869Z,-3.13
2023-03-07T03:51:06.276Z,-3.13
2023-03-07T03:53:38.994Z,-3.14
2023-03-07T03:56:10.402Z,-3.15
2023-03-07T03:58:59.182Z,-3.17
2023-03-07T04:01:30.208Z,-3.20
2023-03-07T04:04:07.592Z,-3.22
2023-03-07T04:06:55.219Z,-3.25
2023-03-07T04:09:22.581Z,-3.29
2023-03-07T04:11:52.179Z,-3.32
2023-03-07T04:14:23.234Z,-3.34
2023-03-07T04:16:52.321Z,-3.35
2023-03-07T04:19:21.984Z,-3.34
2023-03-07T04:21:51.891Z,-3.41
2023-03-07T04:24:19.199Z,-3.51
2023-03-07T04:26:46.702Z,-3.56
2023-03-07T04:29:16.618Z,-3.60
2023-03-07T04:31:51.124Z,-3.60
2023-03-07T04:34:18.751Z,-3.63
2023-03-07T04:36:45.912Z,-3.66
2023-03-07T04:39:14.280Z,-3.67
2023-03-07T04:41:42.225Z,-3.69
2023-03-07T04:44:18.850Z,-3.72
2023-03-07T04:46:49.484Z,-3.78
2023-03-07T04:49:20.393Z,-3.82
2023-03-07T04:51:48.885Z,-3.87
2023-03-07T04:54:17.765Z,-3.91
2023-03-07T04:56:47.986Z,-3.94
2023-03-07T04:59:15.572Z,-3.92
2023-03-07T05:01:45.567Z,-3.92
2023-03-07T05:04:33.302Z,-3.94
2023-03-07T05:07:04.031Z,-3.97
2023-03-07T05:09:51.782Z,-3.96
2023-03-07T05:12:19.733Z,-3.91
2023-03-07T05:14:49.349Z,-3.90
2023-03-07T05:17:20.284Z,-3.93
2023-03-07T05:19:47.622Z,-3.95
2023-03-07T05:22:15.402Z,-3.93
2023-03-07T05:24:43.903Z,-3.93
2023-03-07T05:27:14.718Z,-3.98
2023-03-07T05:29:42.075Z,-3.98
2023-03-07T05:32:11.057Z,-3.98
2023-03-07T05:34:39.494Z,-4.03
2023-03-07T05:37:07.115Z,-4.05
2023-03-07T05:39:34.802Z,-4.03
2023-03-07T05:42:02.221Z,-3.99
2023-03-07T05:44:33.999Z,-3.97
2023-03-07T05:47:01.857Z,-3.99
2023-03-07T05:49:29.623Z,-4.01
2023-03-07T05:51:56.980Z,-4.05
2023-03-07T05:54:24.500Z,-4.09
2023-03-07T05:56:51.791Z,-4.14
2023-03-07T05:59:19.851Z,-4.17
2023-03-07T06:02:01.592Z,-4.18
2023-03-07T06:04:29.314Z,-4.16
2023-03-07T06:06:59.861Z,-4.13
2023-03-07T06:09:28.470Z,-4.12
2023-03-07T06:11:56.316Z,-4.13
2023-03-07T06:14:26.363Z,-4.09
2023-03-07T06:16:53.686Z,-4.04
2023-03-07T06:19:21.165Z,-3.95
2023-03-07T06:21:49.507Z,-3.88
2023-03-07T06:24:17.025Z,-3.85
2023-03-07T06:26:45.157Z,-3.82
2023-03-07T06:29:13.121Z,-3.80
2023-03-07T06:31:40.485Z,-3.78
2023-03-07T06:34:08.675Z,-3.75
2023-03-07T06:36:36.000Z,-3.74
2023-03-07T06:39:04.306Z,-3.74
2023-03-07T06:41:31.672Z,-3.76
2023-03-07T06:44:00.682Z,-3.78
2023-03-07T06:46:30.583Z,-3.76
2023-03-07T06:49:03.747Z,-3.75
2023-03-07T06:51:31.199Z,-3.72
2023-03-07T06:53:59.104Z,-3.68
2023-03-07T06:56:26.722Z,-3.63
2023-03-07T06:58:53.871Z,-3.53
2023-03-07T07:01:25.165Z,-3.43
2023-03-07T07:03:56.272Z,-3.35
2023-03-07T07:06:23.700Z,-3.25
2023-03-07T07:08:51.001Z,-3.12
2023-03-07T07:11:18.471Z,-2.97
2023-03-07T07:13:46.838Z,-2.89
2023-03-07T07:16:17.112Z,-2.88
2023-03-07T07:18:45.007Z,-2.81
2023-03-07T07:21:15.213Z,-2.77
2023-03-07T07:23:45.339Z,-2.79
2023-03-07T07:26:24.534Z,-2.75
2023-03-07T07:28:52.333Z,-2.75
2023-03-07T07:31:19.612Z,-2.75
2023-03-07T07:33:47.882Z,-2.68
2023-03-07T07:36:15.825Z,-2.47
2023-03-07T07:38:43.247Z,-2.27
2023-03-07T07:41:10.438Z,-2.19
2023-03-07T07:43:38.110Z,-2.24
2023-03-07T07:46:10.908Z,-2.23
2023-03-07T07:48:38.901Z,-2.00
2023-03-07T07:51:06.987Z,-1.41
2023-03-07T07:53:36.846Z,-0.06
2023-03-07T07:56:04.750Z,1.39
2023-03-07T07:58:32.679Z,2.53
2023-03-07T08:01:02.177Z,3.38
2023-03-07T08:03:29.880Z,3.90
2023-03-07T08:06:21.710Z,4.51
2023-03-07T08:08:50.156Z,5.33
2023-03-07T08:11:17.406Z,6.00
2023-03-07T08:13:44.929Z,6.52
2023-03-07T08:16:17.108Z,7.22
2023-03-07T08:18:48.841Z,7.77
2023-03-07T08:21:16.104Z,8.09
2023-03-07T08:23:43.419Z,8.48
2023-03-07T08:26:13.367Z,8.91
2023-03-07T08:28:41.346Z,9.30
2023-03-07T08:31:12.188Z,9.19
2023-03-07T08:33:40.794Z,8.48
2023-03-07T08:36:09.280Z,7.71
2023-03-07T08:38:37.138Z,7.01
2023-03-07T08:41:05.706Z,7.07
2023-03-07T08:43:37.679Z,7.58
2023-03-07T08:46:25.034Z,8.14
2023-03-07T08:48:52.373Z,8.41
2023-03-07T08:51:20.849Z,8.72
2023-03-07T08:53:48.573Z,8.93
2023-03-07T08:56:18.705Z,9.20
2023-03-07T08:58:48.841Z,9.39
2023-03-07T09:01:16.013Z,9.62
2023-03-07T09:03:44.104Z,9.76
2023-03-07T09:06:19.045Z,9.66
2023-03-07T09:08:48.633Z,9.62
2023-03-07T09:11:19.630Z,9.50
2023-03-07T09:13:52.315Z,9.30
2023-03-07T09:16:20.505Z,9.25
2023-03-07T09:18:48.032Z,9.21
2023-03-07T09:21:15.335Z,9.10
2023-03-07T09:23:43.622Z,8.99
2023-03-07T09:26:11.580Z,8.96
2023-03-07T09:28:38.775Z,9.08
2023-03-07T09:31:11.966Z,9.44
2023-03-07T09:33:45.695Z,9.53
2023-03-07T09:36:16.173Z,9.26
2023-03-07T09:38:43.420Z,8.76
2023-03-07T09:41:24.471Z,7.97
2023-03-07T09:43:58.975Z,7.20
2023-03-07T09:46:56.742Z,6.78
2023-03-07T09:49:31.200Z,6.70
2023-03-07T09:52:04.358Z,6.89
2023-03-07T09:54:40.527Z,7.28
2023-03-07T09:57:16.755Z,7.55
2023-03-07T09:59:47.703Z,7.75
2023-03-07T10:02:21.852Z,7.85
2023-03-07T10:04:57.143Z,7.50
2023-03-07T10:07:27.817Z,7.15
2023-03-07T10:10:01.452Z,6.77
2023-03-07T10:12:51.636Z,6.21
2023-03-07T10:15:30.509Z,5.73
2023-03-07T10:18:51.965Z,5.24
2023-03-07T10:21:32.894Z,4.64
2023-03-07T10:24:29.343Z,4.08
2023-03-07T10:27:05.035Z,3.48
2023-03-07T10:29:49.133Z,3.20
2023-03-07T10:32:24.312Z,2.88
2023-03-07T10:34:59.777Z,2.62
2023-03-07T10:37:37.124Z,2.43
2023-03-07T10:40:05.229Z,2.26
2023-03-07T10:42:39.850Z,2.08
2023-03-07T10:45:09.140Z,1.97
2023-03-07T10:47:37.005Z,1.90
2023-03-07T10:50:24.906Z,1.84
2023-03-07T10:52:55.358Z,1.76
2023-03-07T10:55:38.430Z,1.74
2023-03-07T10:58:20.889Z,1.74
2023-03-07T11:01:00.408Z,1.89
2023-03-07T11:03:49.626Z,2.16
2023-03-07T11:06:53.280Z,2.49
2023-03-07T11:09:24.609Z,2.63
2023-03-07T11:11:56.103Z,2.93
2023-03-07T11:14:51.367Z,3.04
2023-03-07T11:17:23.810Z,3.17
2023-03-07T11:20:22.784Z,3.21
2023-03-07T11:22:50.512Z,3.19
2023-03-07T11:25:26.027Z,3.22
2023-03-07T11:27:58.017Z,3.25
2023-03-07T11:30:46.939Z,3.36
2023-03-07T11:33:24.322Z,3.52
2023-03-07T11:36:03.199Z,3.54
2023-03-07T11:38:42.782Z,3.59
2023-03-07T11:41:32.935Z,3.56
2023-03-07T11:44:13.145Z,3.64
2023-03-07T11:47:18.475Z,3.80
2023-03-07T11:50:22.552Z,3.90
2023-03-07T11:53:30.641Z,4.01
2023-03-07T11:56:31.049Z,4.09
2023-03-07T11:59:52.242Z,4.19
2023-03-07T12:02:49.274Z,4.33
2023-03-07T12:05:38.122Z,4.53
2023-03-07T12:08:32.524Z,4.68
2023-03-07T12:11:10.832Z,4.74
2023-03-07T12:13:47.822Z,4.78
2023-03-07T12:16:50.294Z,4.79
2023-03-07T12:20:02.731Z,4.92
2023-03-07T12:22:37.498Z,4.99
2023-03-07T12:25:25.037Z,4.97
2023-03-07T12:28:04.395Z,4.94
2023-03-07T12:30:42.711Z,4.98
2023-03-07T12:33:20.590Z,4.98
2023-03-07T12:35:53.501Z,4.98
2023-03-07T12:38:41.880Z,4.99
2023-03-07T12:41:21.130Z,5.01
2023-03-07T12:43:59.237Z,4.97
2023-03-07T12:46:37.654Z,4.99
2023-03-07T12:49:40.952Z,4.99
2023-03-07T12:52:41.272Z,4.93
2023-03-07T12:55:22.272Z,4.97
2023-03-07T12:58:16.822Z,5.01
2023-03-07T13:01:11.170Z,5.00
2023-03-07T13:03:47.584Z,4.97
2023-03-07T13:06:40.103Z,4.94
2023-03-07T13:09:28.932Z,4.87
2023-03-07T13:12:31.363Z,4.83
2023-03-07T13:15:00.497Z,4.81
2023-03-07T13:17:59.052Z,4.81
2023-03-07T13:20:47.930Z,4.81
2023-03-07T13:23:26.204Z,4.76
2023-03-07T13:26:12.380Z,4.70
2023-03-07T13:28:45.694Z,4.66
2023-03-07T13:31:45.749Z,4.62
2023-03-07T13:34:46.784Z,4.60
2023-03-07T13:37:52.498Z,4.59
2023-03-07T13:40:54.949Z,4.53
2023-03-07T13:44:00.376Z,4.46
2023-03-07T13:47:01.495Z,4.42
2023-03-07T13:49:56.437Z,4.41
2023-03-07T13:52:47.133Z,4.38
2023-03-07T13:55:39.607Z,4.35
2023-03-07T13:58:24.105Z,4.32
2023-03-07T14:00:59.193Z,4.30
2023-03-07T14:03:32.111Z,4.31
2023-03-07T14:06:03.144Z,4.31
2023-03-07T14:08:34.187Z,4.31
2023-03-07T14:11:02.400Z,4.30
2023-03-07T14:13:55.970Z,4.31
2023-03-07T14:16:39.821Z,4.32
2023-03-07T14:19:21.064Z,4.33
2023-03-07T14:21:56.859Z,4.33
2023-03-07T14:24:47.713Z,4.34
2023-03-07T14:27:17.542Z,4.34
2023-03-07T14:29:53.636Z,4.33
2023-03-07T14:32:43.580Z,4.33
2023-03-07T14:35:15.803Z,4.34
2023-03-07T14:37:43.968Z,4.33
2023-03-07T14:40:29.646Z,4.33
2023-03-07T14:43:06.353Z,4.32
2023-03-07T14:45:36.624Z,4.32
2023-03-07T14:48:48.707Z,4.32
2023-03-07T14:51:20.515Z,4.33
2023-03-07T14:53:48.895Z,4.34
2023-03-07T14:56:25.354Z,4.36
2023-03-07T14:58:58.852Z,4.39
2023-03-07T15:01:32.095Z,4.40
2023-03-07T15:03:59.454Z,4.41
2023-03-07T15:06:28.633Z,4.42
2023-03-07T15:08:59.633Z,4.44
2023-03-07T15:11:34.065Z,4.44
2023-03-07T15:14:08.283Z,4.47
2023-03-07T15:16:41.680Z,4.48
2023-03-07T15:19:37.868Z,4.47
2023-03-07T15:22:21.601Z,4.48
2023-03-07T15:24:53.325Z,4.49
2023-03-07T15:27:28.130Z,4.49
2023-03-07T15:30:27.767Z,4.51
2023-03-07T15:33:11.907Z,4.52
2023-03-07T15:35:39.471Z,4.52
2023-03-07T15:38:19.093Z,4.54
2023-03-07T15:40:47.401Z,4.56
2023-03-07T15:43:35.848Z,4.56
2023-03-07T15:46:24.391Z,4.55
2023-03-07T15:49:01.721Z,4.53
2023-03-07T15:51:39.792Z,4.52
2023-03-07T15:54:32.748Z,4.49
2023-03-07T15:57:22.254Z,4.48
2023-03-07T16:00:22.040Z,4.46
2023-03-07T16:03:26.567Z,4.43
2023-03-07T16:05:57.506Z,4.39
2023-03-07T16:08:25.814Z,4.38
2023-03-07T16:11:15.237Z,4.37
2023-03-07T16:13:44.967Z,4.35
2023-03-07T16:16:26.158Z,4.34
2023-03-07T16:19:01.064Z,4.32
2023-03-07T16:21:48.700Z,4.29
2023-03-07T16:24:20.261Z,4.28
2023-03-07T16:27:01.725Z,4.24
2023-03-07T16:29:51.803Z,4.22
2023-03-07T16:32:21.792Z,4.21
2023-03-07T16:34:51.342Z,4.21
2023-03-07T16:37:18.733Z,4.20
2023-03-07T16:39:46.281Z,4.19
2023-03-07T16:42:20.021Z,4.17
2023-03-07T16:44:50.695Z,4.15
2023-03-07T16:47:19.919Z,4.13
2023-03-07T16:49:47.944Z,4.11
2023-03-07T16:52:26.359Z,4.10
2023-03-07T16:54:58.273Z,4.07
2023-03-07T16:57:28.338Z,4.05
2023-03-07T17:00:20.662Z,4.04
2023-03-07T17:03:03.506Z,4.03
2023-03-07T17:05:33.689Z,4.02
2023-03-07T17:08:21.664Z,4.01
2023-03-07T17:10:49.872Z,4.00
2023-03-07T17:13:19.566Z,3.98
2023-03-07T17:15:50.317Z,3.99
2023-03-07T17:18:22.450Z,3.98
2023-03-07T17:20:50.193Z,3.98
2023-03-07T17:23:17.843Z,3.96
2023-03-07T17:25:45.160Z,3.94
2023-03-07T17:28:33.236Z,3.92
2023-03-07T17:31:00.545Z,3.92
2023-03-07T17:33:28.135Z,3.91
2023-03-07T17:36:04.353Z,3.89
2023-03-07T17:38:34.494Z,3.88
2023-03-07T17:41:01.721Z,3.87
2023-03-07T17:43:50.201Z,3.85
2023-03-07T17:46:18.914Z,3.85
2023-03-07T17:48:57.421Z,3.84
2023-03-07T17:51:34.217Z,3.81
2023-03-07T17:54:01.990Z,3.80
2023-03-07T17:56:32.164Z,3.79
2023-03-07T17:59:01.836Z,3.80
2023-03-07T18:01:33.249Z,3.80
2023-03-07T18:04:01.359Z,3.79
2023-03-07T18:06:41.010Z,3.79
2023-03-07T18:09:10.970Z,3.79
2023-03-07T18:11:38.615Z,3.78
2023-03-07T18:14:06.148Z,3.78
2023-03-07T18:16:36.430Z,3.78
2023-03-07T18:19:10.100Z,3.78
2023-03-07T18:21:53.315Z,3.78
2023-03-07T18:24:23.477Z,3.78
2023-03-07T18:26:52.161Z,3.78
2023-03-07T18:29:29.394Z,3.78
2023-03-07T18:31:59.264Z,3.78
2023-03-07T18:34:27.123Z,3.79
2023-03-07T18:36:54.946Z,3.79
2023-03-07T18:39:22.970Z,3.80
2023-03-07T18:41:53.389Z,3.82
2023-03-07T18:44:20.888Z,3.84
2023-03-07T18:46:48.669Z,3.85
2023-03-07T18:49:23.355Z,3.90
2023-03-07T18:51:50.619Z,3.95
2023-03-07T18:54:38.715Z,3.99
2023-03-07T18:57:10.161Z,4.01
2023-03-07T18:59:37.636Z,4.04
2023-03-07T19:02:08.490Z,4.07
2023-03-07T19:04:36.307Z,4.09
2023-03-07T19:07:06.890Z,4.11
2023-03-07T19:09:34.272Z,4.13
2023-03-07T19:12:04.464Z,4.16
2023-03-07T19:14:33.253Z,4.19
2023-03-07T19:17:09.675Z,4.20
2023-03-07T19:19:39.489Z,4.20
2023-03-07T19:22:27.468Z,4.21
2023-03-07T19:24:55.074Z,4.21
2023-03-07T19:27:22.128Z,4.21
2023-03-07T19:29:49.696Z,4.21
2023-03-07T19:32:20.015Z,4.22
2023-03-07T19:34:49.183Z,4.21
2023-03-07T19:37:19.838Z,4.22
2023-03-07T19:39:47.079Z,4.22
2023-03-07T19:42:34.692Z,4.21
2023-03-07T19:45:09.014Z,4.21
2023-03-07T19:47:40.111Z,4.19
2023-03-07T19:50:08.448Z,4.16
2023-03-07T19:52:39.018Z,4.15
2023-03-07T19:55:07.102Z,4.15
2023-03-07T19:57:54.577Z,4.15
2023-03-07T20:00:22.991Z,4.13
2023-03-07T20:02:50.181Z,4.10
2023-03-07T20:05:26.541Z,4.08
2023-03-07T20:08:07.549Z,4.07
2023-03-07T20:10:46.340Z,4.06
2023-03-07T20:13:25.156Z,4.07
2023-03-07T20:16:13.831Z,4.07
2023-03-07T20:18:41.713Z,4.07
2023-03-07T20:21:21.115Z,4.07
2023-03-07T20:23:53.023Z,4.10
2023-03-07T20:26:35.563Z,4.12
2023-03-07T20:29:22.761Z,4.13
2023-03-07T20:32:09.117Z,4.16
2023-03-07T20:34:57.791Z,4.17
2023-03-07T20:37:36.328Z,4.19
2023-03-07T20:40:07.389Z,4.20
2023-03-07T20:42:35.510Z,4.21
2023-03-07T20:45:23.223Z,4.20
2023-03-07T20:48:02.146Z,4.21
2023-03-07T20:50:49.858Z,4.20
2023-03-07T20:53:27.155Z,4.18
2023-03-07T20:56:14.584Z,4.16
2023-03-07T20:58:43.126Z,4.13
2023-03-07T21:01:14.210Z,4.13
2023-03-07T21:03:44.072Z,4.12
2023-03-07T21:06:11.856Z,4.10
2023-03-07T21:08:39.863Z,4.08
2023-03-07T21:11:20.577Z,4.07
2023-03-07T21:13:49.404Z,4.05
2023-03-07T21:16:19.046Z,4.03
2023-03-07T21:18:46.910Z,4.01
2023-03-07T21:21:17.083Z,4.00
2023-03-07T21:24:04.979Z,3.99
2023-03-07T21:26:37.097Z,3.99
2023-03-07T21:29:05.117Z,4.00
2023-03-07T21:31:54.216Z,3.98
2023-03-07T21:34:31.974Z,3.97
2023-03-07T21:37:21.018Z,3.97
2023-03-07T21:39:48.554Z,3.97
2023-03-07T21:42:15.979Z,3.96
2023-03-07T21:44:43.616Z,3.94
2023-03-07T21:47:13.138Z,3.92
2023-03-07T21:49:43.492Z,3.90
2023-03-07T21:52:20.977Z,3.88
2023-03-07T21:54:48.208Z,3.86
2023-03-07T21:57:25.448Z,3.84
2023-03-07T21:59:55.591Z,3.82
2023-03-07T22:02:25.760Z,3.79
2023-03-07T22:05:00.796Z,3.75
2023-03-07T22:07:28.257Z,3.71
2023-03-07T22:10:03.464Z,3.69
2023-03-07T22:12:50.988Z,3.64
2023-03-07T22:15:18.859Z,3.60
2023-03-07T22:17:56.355Z,3.51
2023-03-07T22:20:43.907Z,3.42
2023-03-07T22:23:13.874Z,3.34
2023-03-07T22:25:43.632Z,3.27
2023-03-07T22:28:11.138Z,3.19
2023-03-07T22:31:04.063Z,3.10
2023-03-07T22:33:50.475Z,2.88
2023-03-07T22:36:37.826Z,2.63
2023-03-07T22:39:25.952Z,2.42
2023-03-07T22:41:53.269Z,2.30
2023-03-07T22:44:31.898Z,2.18
2023-03-07T22:46:59.870Z,2.08
2023-03-07T22:49:37.290Z,1.99
2023-03-07T22:52:17.950Z,1.86
2023-03-07T22:55:06.417Z,1.72
2023-03-07T22:57:43.957Z,1.62
2023-03-07T23:00:14.110Z,1.52
2023-03-07T23:02:41.637Z,1.43
2023-03-07T23:05:21.832Z,1.33
2023-03-07T23:07:58.310Z,1.27
2023-03-07T23:10:37.288Z,1.23
2023-03-07T23:13:06.741Z,1.19
2023-03-07T23:15:40.138Z,1.17
2023-03-07T23:18:28.041Z,1.15
2023-03-07T23:20:58.396Z,1.13
2023-03-07T23:23:46.597Z,1.11
2023-03-07T23:26:27.215Z,1.08
2023-03-07T23:29:14.753Z,1.07
2023-03-07T23:32:04.064Z,1.06
2023-03-07T23:34:35.619Z,1.06
2023-03-07T23:37:06.608Z,1.04
2023-03-07T23:39:33.733Z,1.00
2023-03-07T23:42:03.378Z,1.00
2023-03-07T23:44:33.686Z,1.01
2023-03-07T23:47:11.045Z,1.00
2023-03-07T23:49:47.341Z,0.99
2023-03-07T23:52:18.065Z,0.99
2023-03-07T23:54:48.748Z,0.98
2023-03-07T23:57:36.140Z,0.96
